SBIZ

Prefeito Renato Moreira Airport

Imperatriz, Brazil
TAF SBIZ 221000Z 2212/2224 05005KT 9999 SCT015 TX34/2217Z TN29/2213Z BECMG 2214/2216 BKN020 BECMG 2216/2218 8000 BKN020 FEW025TCU BECMG 2219/2221 9999 CAVOK RMK PAZ
Issued Valid From Valid To
Jan-22 @ 10:00 UTC
(8 hours ago)
Jan-22 @ 12:00 UTC
(6 hours ago)
Jan-23 @ 00:00 UTC
(in 6 hours)
Expired Click to View Jan-22 @ 12:00 to Jan-22 @ 14:00
TAF SBIZ 221000Z 2212/2224 05005KT 9999 SCT015 TX34/2217Z TN29/2213Z
Wind Visibility Clouds
50° at 5 knots 10,000+ meters
  • Scattered at 1,500' AGL
Expired Click to View Jan-22 @ 14:00 to Jan-22 @ 16:00
BECMG 2214/2216 BKN020
Wind Visibility Clouds
50° at 5 knots 10,000+ meters
  • Broken at 2,000' AGL
Becoming Jan-22 @ 16:00 to Jan-22 @ 19:00
BECMG 2216/2218 8000 BKN020 FEW025TCU
Wind Visibility Clouds
50° at 5 knots 7,998 meters
  • Broken at 2,000' AGL
  • Few at 2,500' AGL
Becoming Jan-22 @ 19:00 to Jan-23 @ 00:00
BECMG 2219/2221 9999 CAVOK RMK PAZ
Wind Visibility Clouds
50° at 5 knots 10,000+ meters
  • No significant clouds
TAF SBIZ 221000Z 2212/2224 05005KT 9999 SCT015 TX34/2217Z TN29/2213Z BECMG 2214/2216 BKN020 BECMG 2216/2218 8000 BKN020 FEW025TCU BECMG 2219/2221 9999 CAVOK RMK PAZ
Issued Jan-22 @ 10:00 UTC
(8 hours ago)
Valid From Jan-22 @ 12:00 UTC
(6 hours ago)
Valid To Jan-23 @ 00:00 UTC
(in 6 hours)
Jan-22 @ 12:00 - Jan-22 @ 14:00
Wind Visibility
50° at 5 knots 10,000+ meters
Clouds
  • Scattered at 1,500' AGL
Jan-22 @ 14:00 - Jan-22 @ 16:00
Wind Visibility
50° at 5 knots 10,000+ meters
Clouds
  • Broken at 2,000' AGL
Becoming Jan-22 @ 16:00 - Jan-22 @ 19:00
Wind Visibility
50° at 5 knots 7,998 meters
Clouds
  • Broken at 2,000' AGL
  • Few at 2,500' AGL
Becoming Jan-22 @ 19:00 - Jan-23 @ 00:00
Wind Visibility
50° at 5 knots 10,000+ meters
Clouds
  • No significant clouds